createdAt,value
2022-09-23T00:01:47.542Z,8.42
2022-09-23T00:03:51.532Z,8.44
2022-09-23T00:05:59.621Z,8.44
2022-09-23T00:08:02.485Z,8.32
2022-09-23T00:10:06.934Z,8.35
2022-09-23T00:12:10.255Z,8.36
2022-09-23T00:14:13.033Z,8.34
2022-09-23T00:16:18.030Z,8.31
2022-09-23T00:18:21.049Z,8.18
2022-09-23T00:20:25.208Z,8.31
2022-09-23T00:22:27.783Z,8.30
2022-09-23T00:24:32.339Z,8.32
2022-09-23T00:26:35.259Z,8.24
2022-09-23T00:28:38.282Z,8.17
2022-09-23T00:30:41.981Z,8.25
2022-09-23T00:32:44.593Z,8.31
2022-09-23T00:34:47.855Z,8.21
2022-09-23T00:36:51.770Z,8.23
2022-09-23T00:38:54.982Z,8.32
2022-09-23T00:40:58.269Z,8.24
2022-09-23T00:43:01.926Z,8.15
2022-09-23T00:45:07.740Z,7.98
2022-09-23T00:47:15.809Z,8.00
2022-09-23T00:49:25.271Z,8.05
2022-09-23T00:51:33.428Z,8.08
2022-09-23T00:53:38.323Z,8.03
2022-09-23T00:55:44.782Z,8.02
2022-09-23T00:57:48.593Z,7.93
2022-09-23T00:59:51.941Z,7.92
2022-09-23T01:01:57.013Z,7.90
2022-09-23T01:04:00.293Z,7.75
2022-09-23T01:06:03.163Z,7.82
2022-09-23T01:08:06.097Z,7.84
2022-09-23T01:10:13.447Z,7.80
2022-09-23T01:12:33.372Z,7.77
2022-09-23T01:14:45.013Z,7.75
2022-09-23T01:16:55.699Z,7.67
2022-09-23T01:19:08.376Z,7.74
2022-09-23T01:21:19.339Z,7.72
2022-09-23T01:24:17.263Z,7.78
2022-09-23T01:26:38.122Z,7.76
2022-09-23T01:29:00.911Z,7.74
2022-09-23T01:31:09.913Z,7.70
2022-09-23T01:33:19.696Z,7.70
2022-09-23T01:35:30.722Z,7.72
2022-09-23T01:37:41.165Z,7.75
2022-09-23T01:39:53.570Z,7.73
2022-09-23T01:42:03.474Z,7.68
2022-09-23T01:44:11.391Z,7.69
2022-09-23T01:46:20.659Z,7.60
2022-09-23T01:48:30.252Z,7.64
2022-09-23T01:50:54.673Z,7.71
2022-09-23T01:53:02.771Z,7.61
2022-09-23T01:55:11.190Z,7.63
2022-09-23T01:57:18.751Z,7.61
2022-09-23T01:59:27.093Z,7.55
2022-09-23T02:01:37.626Z,7.55
2022-09-23T02:03:46.386Z,7.56
2022-09-23T02:05:54.112Z,7.49
2022-09-23T02:07:59.894Z,7.56
2022-09-23T02:10:08.646Z,7.47
2022-09-23T02:12:16.810Z,7.50
2022-09-23T02:14:25.508Z,7.60
2022-09-23T02:16:32.938Z,7.58
2022-09-23T02:18:46.052Z,7.69
2022-09-23T02:20:53.910Z,7.60
2022-09-23T02:23:03.015Z,7.70
2022-09-23T02:25:07.415Z,7.62
2022-09-23T02:27:19.695Z,7.66
2022-09-23T02:29:26.938Z,7.51
2022-09-23T02:31:39.612Z,7.45
2022-09-23T02:33:44.589Z,7.50
2022-09-23T02:35:55.191Z,7.50
2022-09-23T02:38:09.587Z,7.40
2022-09-23T02:40:23.513Z,7.43
2022-09-23T02:42:35.537Z,7.54
2022-09-23T02:44:38.163Z,7.33
2022-09-23T02:46:43.175Z,7.36
2022-09-23T02:48:51.043Z,7.27
2022-09-23T02:50:54.342Z,7.23
2022-09-23T02:52:57.009Z,7.26
2022-09-23T02:55:00.817Z,7.24
2022-09-23T02:57:06.719Z,7.25
2022-09-23T02:59:10.456Z,7.19
2022-09-23T03:01:21.897Z,7.18
2022-09-23T03:03:39.107Z,7.17
2022-09-23T03:05:49.956Z,7.20
2022-09-23T03:08:06.456Z,7.12
2022-09-23T03:10:16.427Z,7.08
2022-09-23T03:12:34.299Z,7.17
2022-09-23T03:14:44.390Z,7.17
2022-09-23T03:16:55.778Z,7.16
2022-09-23T03:19:12.276Z,7.19
2022-09-23T03:21:20.577Z,7.03
2022-09-23T03:23:26.940Z,7.11
2022-09-23T03:25:33.185Z,7.12
2022-09-23T03:27:38.041Z,7.15
2022-09-23T03:29:42.295Z,6.96
2022-09-23T03:31:45.952Z,6.94
2022-09-23T03:33:53.743Z,6.93
2022-09-23T03:36:20.052Z,6.82
2022-09-23T03:38:26.147Z,6.88
2022-09-23T03:40:32.778Z,6.88
2022-09-23T03:42:37.450Z,6.82
2022-09-23T03:44:44.522Z,6.84
2022-09-23T03:46:49.781Z,6.78
2022-09-23T03:48:52.484Z,6.78
2022-09-23T03:50:55.097Z,6.76
2022-09-23T03:52:59.311Z,6.73
2022-09-23T03:55:02.188Z,6.78
2022-09-23T03:57:05.230Z,6.78
2022-09-23T03:59:07.984Z,6.77
2022-09-23T04:01:10.642Z,6.69
2022-09-23T04:03:13.326Z,6.63
2022-09-23T04:05:16.501Z,6.66
2022-09-23T04:07:19.154Z,6.67
2022-09-23T04:09:23.462Z,6.58
2022-09-23T04:11:26.025Z,6.55
2022-09-23T04:13:29.348Z,6.57
2022-09-23T04:15:32.050Z,6.55
2022-09-23T04:17:34.716Z,6.55
2022-09-23T04:19:37.364Z,6.60
2022-09-23T04:21:40.424Z,6.57
2022-09-23T04:23:43.086Z,6.53
2022-09-23T04:25:48.378Z,6.50
2022-09-23T04:27:51.062Z,6.52
2022-09-23T04:29:53.679Z,6.49
2022-09-23T04:31:56.395Z,6.46
2022-09-23T04:33:59.399Z,6.50
2022-09-23T04:36:02.775Z,6.44
2022-09-23T04:38:05.621Z,6.38
2022-09-23T04:40:09.701Z,6.33
2022-09-23T04:42:14.013Z,6.33
2022-09-23T04:44:18.857Z,6.32
2022-09-23T04:46:21.516Z,6.35
2022-09-23T04:48:24.129Z,6.38
2022-09-23T04:50:27.192Z,6.31
2022-09-23T04:52:32.171Z,6.34
2022-09-23T04:54:34.913Z,6.26
2022-09-23T04:56:37.547Z,6.23
2022-09-23T04:58:42.239Z,6.22
2022-09-23T05:00:44.904Z,6.21
2022-09-23T05:02:49.758Z,6.35
2022-09-23T05:04:52.359Z,6.21
2022-09-23T05:06:55.972Z,6.21
2022-09-23T05:09:01.960Z,6.21
2022-09-23T05:11:06.099Z,6.17
2022-09-23T05:13:08.817Z,6.21
2022-09-23T05:15:13.074Z,6.25
2022-09-23T05:17:15.812Z,6.21
2022-09-23T05:19:18.409Z,6.29
2022-09-23T05:21:22.839Z,6.14
2022-09-23T05:23:26.028Z,6.21
2022-09-23T05:25:28.705Z,6.25
2022-09-23T05:27:31.330Z,6.21
2022-09-23T05:29:34.804Z,6.32
2022-09-23T05:31:38.730Z,6.34
2022-09-23T05:33:42.280Z,6.30
2022-09-23T05:35:47.985Z,6.38
2022-09-23T05:37:50.599Z,6.27
2022-09-23T05:39:53.169Z,6.33
2022-09-23T05:41:56.044Z,6.36
2022-09-23T05:43:59.680Z,6.47
2022-09-23T05:46:07.296Z,6.31
2022-09-23T05:48:12.241Z,6.37
2022-09-23T05:50:14.902Z,6.43
2022-09-23T05:52:17.655Z,6.52
2022-09-23T05:54:20.278Z,6.57
2022-09-23T05:56:24.906Z,6.70
2022-09-23T05:58:28.160Z,6.69
2022-09-23T06:00:30.778Z,6.92
2022-09-23T06:02:33.458Z,6.92
2022-09-23T06:04:37.662Z,6.94
2022-09-23T06:06:42.311Z,7.03
2022-09-23T06:08:45.189Z,6.94
2022-09-23T06:10:53.607Z,7.12
2022-09-23T06:12:57.450Z,7.11
2022-09-23T06:15:00.580Z,7.25
2022-09-23T06:17:03.237Z,7.31
2022-09-23T06:19:07.009Z,7.30
2022-09-23T06:21:13.750Z,7.29
2022-09-23T06:23:16.400Z,7.36
2022-09-23T06:25:19.551Z,7.29
2022-09-23T06:27:22.133Z,7.50
2022-09-23T06:29:24.963Z,7.51
2022-09-23T06:31:27.827Z,7.48
2022-09-23T06:33:36.485Z,7.51
2022-09-23T06:35:40.312Z,7.78
2022-09-23T06:37:44.658Z,7.88
2022-09-23T06:39:47.251Z,7.98
2022-09-23T06:41:49.877Z,8.10
2022-09-23T06:43:52.484Z,8.00
2022-09-23T06:45:55.655Z,8.06
2022-09-23T06:47:59.134Z,8.19
2022-09-23T06:50:01.966Z,8.25
2022-09-23T06:52:06.128Z,8.33
2022-09-23T06:54:10.988Z,8.44
2022-09-23T06:56:14.113Z,8.32
2022-09-23T06:58:16.757Z,8.59
2022-09-23T07:00:19.535Z,8.59
2022-09-23T07:02:22.290Z,8.87
2022-09-23T07:04:29.140Z,9.03
2022-09-23T07:06:32.002Z,9.91
2022-09-23T07:08:35.582Z,9.85
2022-09-23T07:10:39.621Z,9.61
2022-09-23T07:12:42.574Z,9.41
2022-09-23T07:14:46.030Z,9.56
2022-09-23T07:16:50.470Z,10.01
2022-09-23T07:18:53.440Z,10.31
2022-09-23T07:20:58.752Z,10.55
2022-09-23T07:23:01.310Z,10.57
2022-09-23T07:25:03.971Z,11.51
2022-09-23T07:27:08.092Z,11.60
2022-09-23T07:29:14.253Z,11.59
2022-09-23T07:31:30.232Z,11.35
2022-09-23T07:33:39.799Z,11.73
2022-09-23T07:35:43.594Z,11.39
2022-09-23T07:37:47.038Z,11.76
2022-09-23T07:39:50.977Z,11.54
2022-09-23T07:41:53.578Z,11.43
2022-09-23T07:44:00.366Z,11.62
2022-09-23T07:46:06.938Z,12.03
2022-09-23T07:48:09.547Z,12.01
2022-09-23T07:50:12.412Z,11.83
2022-09-23T07:52:15.018Z,11.76
2022-09-23T07:54:18.416Z,11.78
2022-09-23T07:56:22.894Z,12.03
2022-09-23T07:58:26.824Z,11.59
2022-09-23T08:00:31.178Z,11.59
2022-09-23T08:02:33.843Z,11.24
2022-09-23T08:04:36.878Z,11.69
2022-09-23T08:06:42.637Z,11.65
2022-09-23T08:08:47.166Z,11.66
2022-09-23T08:10:52.628Z,11.58
2022-09-23T08:12:55.294Z,11.51
2022-09-23T08:14:59.521Z,11.56
2022-09-23T08:17:03.525Z,11.73
2022-09-23T08:19:06.505Z,11.99
2022-09-23T08:21:09.268Z,12.23
2022-09-23T08:23:12.598Z,11.79
2022-09-23T08:25:20.462Z,12.29
2022-09-23T08:27:24.460Z,11.94
2022-09-23T08:29:27.300Z,12.50
2022-09-23T08:31:29.968Z,12.54
2022-09-23T08:33:33.901Z,12.60
2022-09-23T08:35:36.482Z,13.25
2022-09-23T08:37:39.066Z,13.18
2022-09-23T08:39:41.646Z,13.07
2022-09-23T08:41:49.907Z,13.44
2022-09-23T08:43:57.129Z,13.84
2022-09-23T08:46:03.571Z,13.77
2022-09-23T08:48:12.856Z,14.80
2022-09-23T08:50:21.287Z,14.03
2022-09-23T08:52:30.406Z,13.91
2022-09-23T08:54:34.158Z,14.58
2022-09-23T08:56:38.850Z,15.01
2022-09-23T08:58:54.804Z,14.90
2022-09-23T09:01:11.819Z,14.58
2022-09-23T09:03:22.069Z,15.26
2022-09-23T09:05:28.566Z,14.54
2022-09-23T09:07:37.672Z,13.92
2022-09-23T09:09:46.913Z,14.27
2022-09-23T09:11:52.319Z,14.67
2022-09-23T09:14:04.115Z,15.34
2022-09-23T09:16:48.374Z,15.84
2022-09-23T09:18:53.603Z,16.58
2022-09-23T09:21:01.121Z,16.81
2022-09-23T09:23:09.815Z,16.58
2022-09-23T09:25:45.172Z,17.20
2022-09-23T09:27:48.633Z,16.64
2022-09-23T09:29:54.532Z,16.98
2022-09-23T09:31:57.994Z,16.53
2022-09-23T09:34:06.161Z,16.23
2022-09-23T09:36:19.926Z,17.15
2022-09-23T09:38:22.674Z,17.87
2022-09-23T09:40:25.416Z,17.99
2022-09-23T09:42:35.656Z,19.04
2022-09-23T09:44:45.049Z,18.08
2022-09-23T09:46:54.696Z,18.54
2022-09-23T09:49:01.648Z,18.08
2022-09-23T09:51:19.938Z,18.52
2022-09-23T09:53:26.129Z,18.78
2022-09-23T09:55:29.893Z,18.51
2022-09-23T09:57:38.158Z,17.38
2022-09-23T09:59:44.038Z,17.20
2022-09-23T10:01:47.164Z,18.44
2022-09-23T10:03:54.356Z,18.62
2022-09-23T10:06:00.075Z,18.72
2022-09-23T10:08:24.534Z,19.64
2022-09-23T10:10:35.240Z,19.82
2022-09-23T10:12:45.683Z,20.85
2022-09-23T10:14:51.324Z,20.01
2022-09-23T10:17:05.209Z,19.28
2022-09-23T10:19:15.813Z,20.25
2022-09-23T10:21:27.597Z,18.05
2022-09-23T10:23:33.344Z,18.62
2022-09-23T10:25:37.523Z,17.96
2022-09-23T10:27:40.172Z,18.02
2022-09-23T10:29:50.812Z,17.26
2022-09-23T10:32:20.394Z,18.77
2022-09-23T10:34:25.061Z,18.87
2022-09-23T10:36:28.629Z,18.03
2022-09-23T10:38:32.587Z,18.13
2022-09-23T10:40:56.770Z,17.88
2022-09-23T10:43:35.339Z,18.38
2022-09-23T10:45:58.163Z,18.72
2022-09-23T10:48:10.876Z,18.56
2022-09-23T10:50:25.490Z,18.05
2022-09-23T10:52:46.471Z,17.75
2022-09-23T10:55:05.016Z,18.18
2022-09-23T10:57:37.560Z,18.22
2022-09-23T10:59:56.164Z,18.18
2022-09-23T11:02:16.614Z,17.88
2022-09-23T11:04:41.387Z,17.61
2022-09-23T11:06:54.129Z,18.52
2022-09-23T11:09:10.439Z,18.18
2022-09-23T11:11:28.944Z,18.35
2022-09-23T11:13:54.064Z,17.83
2022-09-23T11:16:08.502Z,18.12
2022-09-23T11:18:38.792Z,18.55
2022-09-23T11:20:46.114Z,18.85
2022-09-23T11:23:07.658Z,17.29
2022-09-23T11:25:30.172Z,18.07
2022-09-23T11:27:51.708Z,17.99
2022-09-23T11:30:04.326Z,18.18
2022-09-23T11:32:27.788Z,18.20
2022-09-23T11:34:56.970Z,18.22
2022-09-23T11:37:04.740Z,17.68
2022-09-23T11:39:13.647Z,17.56
2022-09-23T11:41:20.605Z,17.49
2022-09-23T11:43:28.573Z,17.94
2022-09-23T11:45:34.908Z,17.88
2022-09-23T11:47:44.865Z,17.56
2022-09-23T11:49:54.162Z,17.60
2022-09-23T11:52:06.300Z,17.59
2022-09-23T11:54:20.384Z,17.93
2022-09-23T11:56:35.191Z,18.50
2022-09-23T11:58:50.135Z,18.88
2022-09-23T12:01:02.051Z,18.32
2022-09-23T12:03:15.595Z,18.24
2022-09-23T12:05:23.351Z,18.03
2022-09-23T12:07:31.991Z,18.57
2022-09-23T12:09:59.311Z,18.88
2022-09-23T12:12:10.829Z,19.23
2022-09-23T12:14:21.829Z,18.49
2022-09-23T12:16:41.035Z,19.31
2022-09-23T12:18:54.490Z,19.16
2022-09-23T12:21:27.089Z,18.49
2022-09-23T12:23:46.548Z,18.36
2022-09-23T12:25:54.071Z,18.42
2022-09-23T12:28:03.547Z,17.83
2022-09-23T12:30:15.636Z,18.17
2022-09-23T12:32:19.377Z,17.69
2022-09-23T12:34:27.943Z,17.44
2022-09-23T12:36:35.274Z,17.47
2022-09-23T12:38:40.380Z,17.32
2022-09-23T12:40:44.551Z,17.44
2022-09-23T12:42:48.768Z,17.51
2022-09-23T12:44:51.848Z,17.91
2022-09-23T12:47:28.830Z,17.81
2022-09-23T12:49:39.168Z,17.85
2022-09-23T12:52:15.315Z,18.73
2022-09-23T12:54:25.568Z,18.10
2022-09-23T12:56:50.492Z,18.32
2022-09-23T12:59:00.563Z,18.75
2022-09-23T13:01:17.908Z,18.30
2022-09-23T13:03:40.535Z,18.47
2022-09-23T13:06:04.809Z,19.11
2022-09-23T13:08:10.578Z,18.71
2022-09-23T13:10:29.868Z,18.41
2022-09-23T13:12:36.594Z,18.59
2022-09-23T13:14:44.945Z,18.98
2022-09-23T13:16:48.161Z,18.94
2022-09-23T13:18:54.131Z,18.32
2022-09-23T13:20:57.055Z,18.26
2022-09-23T13:23:18.800Z,18.31
2022-09-23T13:25:25.367Z,18.86
2022-09-23T13:27:31.018Z,19.07
2022-09-23T13:29:44.427Z,18.93
2022-09-23T13:31:48.329Z,18.49
2022-09-23T13:33:55.415Z,18.64
2022-09-23T13:36:04.198Z,17.99
2022-09-23T13:38:19.597Z,17.90
2022-09-23T13:40:24.785Z,17.56
2022-09-23T13:42:30.058Z,17.95
2022-09-23T13:44:32.764Z,17.36
2022-09-23T13:46:43.929Z,17.64
2022-09-23T13:48:48.679Z,17.41
2022-09-23T13:50:53.666Z,17.65
2022-09-23T13:52:59.988Z,17.69
2022-09-23T13:55:02.575Z,17.88
2022-09-23T13:57:05.445Z,17.86
2022-09-23T13:59:24.724Z,17.98
2022-09-23T14:01:33.021Z,17.74
2022-09-23T14:03:39.356Z,18.04
2022-09-23T14:05:43.126Z,17.94
2022-09-23T14:07:45.963Z,17.82
2022-09-23T14:09:50.692Z,18.07
2022-09-23T14:11:53.440Z,17.76
2022-09-23T14:13:56.814Z,18.06
2022-09-23T14:16:02.967Z,17.82
2022-09-23T14:18:08.392Z,17.92
2022-09-23T14:20:15.830Z,18.06
2022-09-23T14:22:26.557Z,17.83
2022-09-23T14:24:34.210Z,18.03
2022-09-23T14:26:37.566Z,17.83
2022-09-23T14:28:40.246Z,17.84
2022-09-23T14:30:46.065Z,17.68
2022-09-23T14:32:49.059Z,17.57
2022-09-23T14:34:53.225Z,17.57
2022-09-23T14:37:14.839Z,17.64
2022-09-23T14:39:17.568Z,17.62
2022-09-23T14:41:25.508Z,17.48
2022-09-23T14:43:29.997Z,17.46
2022-09-23T14:45:34.670Z,17.64
2022-09-23T14:47:37.736Z,17.50
2022-09-23T14:50:00.460Z,17.62
2022-09-23T14:52:07.601Z,17.69
2022-09-23T14:54:25.534Z,17.59
2022-09-23T14:56:28.340Z,17.68
2022-09-23T14:58:30.965Z,17.53
2022-09-23T15:00:33.568Z,17.54
2022-09-23T15:02:38.038Z,17.53
2022-09-23T15:04:40.787Z,17.44
2022-09-23T15:06:48.927Z,17.48
2022-09-23T15:08:55.505Z,17.44
2022-09-23T15:10:58.831Z,17.43
2022-09-23T15:13:07.351Z,17.48
2022-09-23T15:15:14.340Z,17.34
2022-09-23T15:17:26.842Z,17.46
2022-09-23T15:19:31.489Z,17.24
2022-09-23T15:21:41.040Z,17.01
2022-09-23T15:23:47.111Z,17.11
2022-09-23T15:25:52.503Z,16.96
2022-09-23T15:28:02.355Z,17.01
2022-09-23T15:30:16.100Z,17.06
2022-09-23T15:32:19.558Z,17.13
2022-09-23T15:34:22.163Z,17.10
2022-09-23T15:36:27.135Z,17.10
2022-09-23T15:38:29.986Z,17.19
2022-09-23T15:40:34.567Z,17.05
2022-09-23T15:42:38.913Z,17.01
2022-09-23T15:44:41.752Z,16.99
2022-09-23T15:46:47.161Z,16.84
2022-09-23T15:48:58.769Z,16.88
2022-09-23T15:51:06.797Z,16.98
2022-09-23T15:53:14.770Z,16.93
2022-09-23T15:55:21.226Z,16.74
2022-09-23T15:57:25.890Z,16.77
2022-09-23T15:59:31.004Z,16.60
2022-09-23T16:01:37.412Z,16.72
2022-09-23T16:03:40.090Z,16.77
2022-09-23T16:05:46.619Z,16.66
2022-09-23T16:07:52.099Z,16.53
2022-09-23T16:09:54.726Z,16.52
2022-09-23T16:11:57.558Z,16.44
2022-09-23T16:14:00.613Z,16.41
2022-09-23T16:16:05.018Z,16.35
2022-09-23T16:18:08.525Z,16.32
2022-09-23T16:20:11.646Z,16.25
2022-09-23T16:22:16.612Z,16.27
2022-09-23T16:24:22.522Z,16.38
2022-09-23T16:26:30.109Z,16.24
2022-09-23T16:28:32.939Z,16.19
2022-09-23T16:30:35.855Z,16.17
2022-09-23T16:32:39.963Z,16.09
2022-09-23T16:34:43.935Z,16.04
2022-09-23T16:36:47.646Z,16.13
2022-09-23T16:38:50.566Z,15.94
2022-09-23T16:40:53.481Z,15.68
2022-09-23T16:42:58.283Z,15.68
2022-09-23T16:45:00.925Z,15.59
2022-09-23T16:47:03.872Z,15.54
2022-09-23T16:49:08.791Z,15.44
2022-09-23T16:51:16.716Z,15.35
2022-09-23T16:53:19.388Z,15.36
2022-09-23T16:55:22.153Z,15.27
2022-09-23T16:57:24.783Z,15.25
2022-09-23T16:59:47.642Z,15.15
2022-09-23T17:02:08.029Z,15.02
2022-09-23T17:04:11.064Z,14.94
2022-09-23T17:06:14.761Z,15.06
2022-09-23T17:08:18.601Z,15.11
2022-09-23T17:10:21.403Z,15.17
2022-09-23T17:12:28.340Z,15.08
2022-09-23T17:14:32.043Z,14.95
2022-09-23T17:16:35.495Z,15.05
2022-09-23T17:18:39.796Z,15.01
2022-09-23T17:20:43.732Z,14.94
2022-09-23T17:22:46.369Z,14.76
2022-09-23T17:24:48.951Z,14.71
2022-09-23T17:26:53.244Z,14.83
2022-09-23T17:28:57.459Z,14.68
2022-09-23T17:31:02.181Z,14.69
2022-09-23T17:33:04.884Z,14.66
2022-09-23T17:35:08.306Z,14.62
2022-09-23T17:37:12.331Z,14.49
2022-09-23T17:39:14.983Z,14.32
2022-09-23T17:41:18.083Z,14.27
2022-09-23T17:43:25.690Z,14.23
2022-09-23T17:45:28.376Z,14.22
2022-09-23T17:47:33.563Z,14.23
2022-09-23T17:49:36.572Z,14.17
2022-09-23T17:51:39.801Z,14.13
2022-09-23T17:53:46.471Z,14.03
2022-09-23T17:55:56.123Z,13.93
2022-09-23T17:57:58.758Z,13.87
2022-09-23T18:00:01.461Z,13.84
2022-09-23T18:02:04.610Z,13.77
2022-09-23T18:04:07.441Z,13.73
2022-09-23T18:06:13.054Z,13.87
2022-09-23T18:08:15.684Z,13.74
2022-09-23T18:10:19.626Z,13.54
2022-09-23T18:12:22.288Z,13.56
2022-09-23T18:14:25.072Z,13.47
2022-09-23T18:16:30.959Z,13.55
2022-09-23T18:18:33.723Z,13.62
2022-09-23T18:20:36.401Z,13.55
2022-09-23T18:22:38.973Z,13.47
2022-09-23T18:24:42.303Z,13.42
2022-09-23T18:26:47.384Z,13.32
2022-09-23T18:28:52.771Z,13.28
2022-09-23T18:30:56.102Z,13.17
2022-09-23T18:32:58.703Z,13.19
2022-09-23T18:35:01.359Z,13.27
2022-09-23T18:37:08.659Z,13.21
2022-09-23T18:39:18.010Z,13.29
2022-09-23T18:41:21.014Z,13.39
2022-09-23T18:43:27.443Z,13.27
2022-09-23T18:45:32.202Z,13.26
2022-09-23T18:47:52.486Z,13.27
2022-09-23T18:50:12.949Z,13.20
2022-09-23T18:52:15.638Z,13.25
2022-09-23T18:54:18.687Z,13.24
2022-09-23T18:56:21.602Z,13.25
2022-09-23T18:58:25.606Z,13.31
2022-09-23T19:00:28.546Z,13.40
2022-09-23T19:02:32.582Z,13.40
2022-09-23T19:04:35.220Z,13.39
2022-09-23T19:06:37.895Z,13.54
2022-09-23T19:08:40.933Z,13.48
2022-09-23T19:10:43.659Z,13.48
2022-09-23T19:12:46.618Z,13.52
2022-09-23T19:14:50.744Z,13.52
2022-09-23T19:16:53.631Z,13.53
2022-09-23T19:18:56.207Z,13.58
2022-09-23T19:21:02.490Z,13.47
2022-09-23T19:23:07.456Z,13.43
2022-09-23T19:25:10.573Z,13.44
2022-09-23T19:27:13.181Z,13.47
2022-09-23T19:29:17.214Z,13.36
2022-09-23T19:31:23.226Z,13.26
2022-09-23T19:33:25.978Z,13.15
2022-09-23T19:35:29.370Z,13.14
2022-09-23T19:37:32.159Z,13.23
2022-09-23T19:39:37.343Z,13.24
2022-09-23T19:41:40.092Z,13.28
2022-09-23T19:43:42.679Z,13.28
2022-09-23T19:45:45.312Z,13.33
2022-09-23T19:47:54.183Z,13.40
2022-09-23T19:49:56.825Z,13.31
2022-09-23T19:52:00.297Z,13.20
2022-09-23T19:54:03.739Z,13.05
2022-09-23T19:56:06.933Z,13.10
2022-09-23T19:58:10.118Z,13.01
2022-09-23T20:00:15.291Z,13.09
2022-09-23T20:02:17.930Z,13.16
2022-09-23T20:04:22.525Z,13.00
2022-09-23T20:06:25.254Z,13.07
2022-09-23T20:08:27.873Z,12.99
2022-09-23T20:10:34.023Z,12.99
2022-09-23T20:12:37.143Z,13.01
2022-09-23T20:14:39.723Z,13.04
2022-09-23T20:16:42.553Z,13.01
2022-09-23T20:18:46.517Z,12.90
2022-09-23T20:20:55.971Z,12.97
2022-09-23T20:22:58.582Z,12.81
2022-09-23T20:25:02.538Z,12.93
2022-09-23T20:27:10.464Z,12.91
2022-09-23T20:29:13.454Z,12.80
2022-09-23T20:31:17.620Z,12.78
2022-09-23T20:33:22.268Z,12.72
2022-09-23T20:35:24.977Z,12.63
2022-09-23T20:37:30.636Z,12.68
2022-09-23T20:39:33.222Z,12.67
2022-09-23T20:41:38.301Z,12.63
2022-09-23T20:43:40.911Z,12.58
2022-09-23T20:45:50.730Z,12.67
2022-09-23T20:47:53.367Z,12.80
2022-09-23T20:49:55.996Z,12.84
2022-09-23T20:51:58.580Z,12.70
2022-09-23T20:54:02.714Z,12.68
2022-09-23T20:56:06.280Z,12.57
2022-09-23T20:58:09.163Z,12.48
2022-09-23T21:00:13.174Z,12.54
2022-09-23T21:02:16.150Z,12.50
2022-09-23T21:04:18.936Z,12.48
2022-09-23T21:06:27.960Z,12.43
2022-09-23T21:08:30.867Z,12.32
2022-09-23T21:10:35.105Z,12.35
2022-09-23T21:12:37.757Z,12.45
2022-09-23T21:14:40.820Z,12.47
2022-09-23T21:16:43.593Z,12.41
2022-09-23T21:18:47.107Z,12.41
2022-09-23T21:21:00.148Z,12.40
2022-09-23T21:23:02.763Z,12.29
2022-09-23T21:27:30.555Z,12.32
2022-09-23T21:29:33.175Z,12.28
2022-09-23T21:31:38.690Z,12.26
2022-09-23T21:33:41.608Z,12.33
2022-09-23T21:35:44.209Z,12.35
2022-09-23T21:37:47.071Z,12.30
2022-09-23T21:40:09.692Z,12.32
2022-09-23T21:42:12.365Z,12.30
2022-09-23T21:44:16.670Z,12.26
2022-09-23T21:46:21.570Z,12.26
2022-09-23T21:48:24.701Z,12.30
2022-09-23T21:50:29.877Z,12.26
2022-09-23T21:52:32.514Z,12.26
2022-09-23T21:54:35.149Z,12.26
2022-09-23T21:56:37.847Z,12.24
2022-09-23T21:58:41.683Z,12.24
2022-09-23T22:00:45.907Z,12.23
2022-09-23T22:02:48.817Z,12.21
2022-09-23T22:04:51.542Z,12.12
2022-09-23T22:06:54.854Z,12.09
2022-09-23T22:08:59.742Z,12.02
2022-09-23T22:11:02.878Z,12.16
2022-09-23T22:13:12.786Z,12.27
2022-09-23T22:15:17.987Z,12.17
2022-09-23T22:17:23.011Z,12.20
2022-09-23T22:19:27.258Z,12.14
2022-09-23T22:21:31.196Z,12.14
2022-09-23T22:23:33.809Z,12.06
2022-09-23T22:25:36.425Z,12.17
2022-09-23T22:27:59.112Z,12.16
2022-09-23T22:30:19.131Z,12.15
2022-09-23T22:32:41.481Z,12.08
2022-09-23T22:34:53.259Z,12.00
2022-09-23T22:36:57.502Z,11.94
2022-09-23T22:39:00.694Z,11.99
2022-09-23T22:41:03.477Z,11.96
2022-09-23T22:43:06.285Z,11.90
2022-09-23T22:45:10.578Z,11.87
2022-09-23T22:47:13.259Z,11.88
2022-09-23T22:49:19.036Z,11.93
2022-09-23T22:51:22.499Z,11.90
2022-09-23T22:53:25.101Z,11.92
2022-09-23T22:55:27.906Z,11.90
2022-09-23T22:57:31.175Z,11.91
2022-09-23T22:59:34.533Z,11.87
2022-09-23T23:01:37.280Z,11.89
2022-09-23T23:03:41.752Z,11.83
2022-09-23T23:05:45.739Z,11.88
2022-09-23T23:07:48.326Z,12.04
2022-09-23T23:09:51.637Z,12.07
2022-09-23T23:11:54.428Z,12.01
2022-09-23T23:14:01.291Z,11.96
2022-09-23T23:16:05.608Z,11.86
2022-09-23T23:18:08.237Z,11.83
2022-09-23T23:20:11.155Z,11.97
2022-09-23T23:22:15.140Z,11.91
2022-09-23T23:24:19.837Z,11.90
2022-09-23T23:26:24.442Z,11.94
2022-09-23T23:28:27.067Z,11.89
2022-09-23T23:30:29.708Z,11.93
2022-09-23T23:32:32.380Z,11.89
2022-09-23T23:34:34.987Z,11.85
2022-09-23T23:36:37.585Z,11.84
2022-09-23T23:38:43.867Z,11.85
2022-09-23T23:40:48.276Z,12.01
2022-09-23T23:42:51.288Z,11.93
2022-09-23T23:44:53.899Z,11.92
2022-09-23T23:46:56.519Z,12.03
2022-09-23T23:49:00.430Z,11.90
2022-09-23T23:51:05.314Z,11.92
2022-09-23T23:53:10.785Z,11.87
2022-09-23T23:55:15.940Z,11.91
2022-09-23T23:57:18.585Z,11.83
2022-09-23T23:59:21.786Z,11.91
